Time;durP1;ratioP1;P1;durP2;ratioP2;P2;SDS_P1;SDS_P2;PMS_P1;PMS_P2;Temp;Humidity;BMP_temperature;BMP_pressure;BME280_temperature;BME280_humidity;BME280_pressure;Samples;Min_cycle;Max_cycle;Signal;HPM_P1;HPM_P2
2022/01/24 00:02:02;;;;;;;10.07;2.95;;;-1.30;98.60;;;;;;21082777;28;20070;-44
2022/01/24 00:12:16;;;;;;;0.80;0.30;;;-1.60;97.70;;;;;;21047550;28;20044;-44
2022/01/24 00:32:41;;;;;;;3.20;1.08;;;-1.80;96.20;;;;;;21012308;28;20036;-43
2022/01/24 00:42:52;;;;;;;2.08;0.77;;;-1.60;96.00;;;;;;21052892;28;20040;-45
2022/01/24 01:03:15;;;;;;;2.67;1.00;;;-1.80;95.20;;;;;;21057487;28;20047;-45
2022/01/24 01:23:45;;;;;;;3.25;1.00;;;-1.30;94.70;;;;;;21054652;28;20371;-48
2022/01/24 02:04:21;;;;;;;1.75;0.52;;;-1.00;92.70;;;;;;21050481;28;20081;-46
2022/01/24 02:14:31;;;;;;;2.70;1.10;;;-1.10;92.50;;;;;;21055872;28;20097;-44
2022/01/24 02:24:52;;;;;;;4.83;1.37;;;0.20;90.90;;;;;;21067751;28;20040;-45
2022/01/24 02:34:54;;;;;;;3.30;1.20;;;0.10;91.80;;;;;;21068446;28;20472;-45
2022/01/24 02:55:08;;;;;;;1.02;0.50;;;-0.80;92.20;;;;;;21062899;28;20108;-45
2022/01/24 03:05:11;;;;;;;1.63;0.50;;;-0.40;91.80;;;;;;21062026;28;20040;-46
2022/01/24 03:15:13;;;;;;;0.95;0.30;;;-0.10;90.10;;;;;;21060614;28;20048;-45
2022/01/24 03:25:16;;;;;;;2.72;0.47;;;0.10;89.80;;;;;;21061119;28;20036;-44
2022/01/24 03:35:19;;;;;;;1.55;0.68;;;-0.30;90.60;;;;;;21059913;28;20032;-45
2022/01/24 03:45:37;;;;;;;1.15;0.40;;;-0.40;90.70;;;;;;21058377;28;20044;-45
2022/01/24 03:55:39;;;;;;;1.27;0.40;;;-0.60;91.20;;;;;;21058170;28;20040;-44
2022/01/24 04:05:43;;;;;;;0.85;0.30;;;-0.90;92.10;;;;;;21034347;28;20350;-44
2022/01/24 04:15:59;;;;;;;0.30;0.10;;;-1.40;92.60;;;;;;20972373;28;20049;-46
2022/01/24 04:26:02;;;;;;;5.00;0.30;;;-1.70;92.80;;;;;;20972628;28;20036;-45
2022/01/24 04:36:05;;;;;;;1.23;0.20;;;-1.90;92.80;;;;;;20995981;28;20036;-45
2022/01/24 04:46:16;;;;;;;0.93;0.30;;;-1.60;92.50;;;;;;21054366;28;20036;-45
2022/01/24 04:56:18;;;;;;;1.15;0.50;;;-1.60;93.10;;;;;;21053426;28;20032;-45
2022/01/24 05:06:23;;;;;;;1.25;0.40;;;-1.50;93.10;;;;;;21051998;28;20036;-45
2022/01/24 05:26:47;;;;;;;0.70;0.30;;;-1.60;93.50;;;;;;21050211;28;20074;-44
2022/01/24 05:36:50;;;;;;;2.40;0.40;;;-1.70;93.60;;;;;;21049749;28;20101;-45
2022/01/24 05:46:52;;;;;;;1.27;0.50;;;-1.70;93.10;;;;;;21049692;28;20093;-45
2022/01/24 05:56:54;;;;;;;1.70;0.35;;;-1.60;93.00;;;;;;21050784;28;20058;-48
2022/01/24 06:06:57;;;;;;;0.85;0.40;;;-1.70;93.00;;;;;;21066313;28;20044;-44
2022/01/24 06:16:59;;;;;;;1.23;0.30;;;-1.70;93.10;;;;;;21035231;28;20118;-45
2022/01/24 06:27:03;;;;;;;0.98;0.50;;;-1.80;93.00;;;;;;20965409;28;20392;-44
2022/01/24 06:37:06;;;;;;;0.50;0.20;;;-1.80;94.10;;;;;;20998490;28;20098;-46
2022/01/24 06:47:09;;;;;;;1.10;0.30;;;-1.80;94.10;;;;;;21048317;28;20058;-44
2022/01/24 06:57:12;;;;;;;1.58;0.30;;;-1.90;94.40;;;;;;21050815;28;20036;-45
2022/01/24 07:07:15;;;;;;;1.75;0.30;;;-2.00;95.30;;;;;;21080209;28;20085;-44
2022/01/24 07:27:26;;;;;;;2.92;0.98;;;-1.80;95.70;;;;;;21060635;28;20089;-46
2022/01/24 07:37:29;;;;;;;3.05;1.08;;;-1.70;96.00;;;;;;21059625;28;20047;-44
2022/01/24 07:47:31;;;;;;;3.63;1.20;;;-1.50;96.30;;;;;;21058045;28;20074;-45
2022/01/24 07:57:34;;;;;;;2.65;1.08;;;-1.20;96.40;;;;;;21058059;28;20081;-44
2022/01/24 08:07:38;;;;;;;6.18;0.95;;;-0.60;95.50;;;;;;21020164;28;20059;-44
2022/01/24 08:17:42;;;;;;;2.47;0.85;;;0.20;94.40;;;;;;20978028;28;20056;-49
2022/01/24 08:27:47;;;;;;;3.20;1.30;;;1.10;93.30;;;;;;21059922;28;20101;-44
2022/01/24 08:37:51;;;;;;;2.53;1.40;;;1.90;91.00;;;;;;20987987;28;20062;-44
2022/01/24 08:47:53;;;;;;;4.85;2.10;;;2.80;90.40;;;;;;20972173;28;20062;-46
2022/01/24 08:57:57;;;;;;;5.68;2.08;;;3.50;89.70;;;;;;20970455;28;20062;-45
2022/01/24 09:07:59;;;;;;;4.20;2.10;;;4.00;87.00;;;;;;20968207;28;20033;-45
2022/01/24 09:18:03;;;;;;;5.95;2.47;;;4.60;86.50;;;;;;21051214;28;20048;-45
2022/01/24 09:28:06;;;;;;;7.25;2.70;;;5.10;85.00;;;;;;21054008;28;20040;-47
2022/01/24 09:38:08;;;;;;;7.35;2.95;;;5.50;85.40;;;;;;21052265;28;20085;-45
2022/01/24 09:48:14;;;;;;;6.90;3.38;;;5.80;84.70;;;;;;21051122;28;20069;-45
2022/01/24 09:58:17;;;;;;;10.77;3.83;;;6.20;84.10;;;;;;21050170;28;20024;-45
2022/01/24 10:08:22;;;;;;;10.40;4.50;;;6.50;82.80;;;;;;21049983;28;20105;-45
2022/01/24 10:18:28;;;;;;;10.98;4.63;;;6.50;83.80;;;;;;21050401;28;20052;-45
2022/01/24 10:28:39;;;;;;;11.88;5.00;;;6.60;85.30;;;;;;21050153;28;20040;-45
2022/01/24 10:38:54;;;;;;;10.20;5.10;;;6.70;85.50;;;;;;21062178;28;20357;-44
2022/01/24 10:49:03;;;;;;;9.90;4.93;;;6.90;85.20;;;;;;21065640;28;20035;-45
2022/01/24 10:59:22;;;;;;;11.85;5.93;;;7.00;85.20;;;;;;21063603;28;20407;-45
2022/01/24 11:09:36;;;;;;;11.88;6.07;;;7.00;84.50;;;;;;21063545;28;20453;-46
2022/01/24 11:19:50;;;;;;;15.52;6.30;;;6.90;85.90;;;;;;21062181;28;20504;-45
2022/01/24 11:30:02;;;;;;;11.57;5.72;;;7.20;86.60;;;;;;21061981;28;20032;-45
2022/01/24 11:40:23;;;;;;;10.88;6.03;;;7.40;84.20;;;;;;21061496;28;20093;-45
2022/01/24 11:50:27;;;;;;;14.18;6.90;;;7.40;84.80;;;;;;21060924;28;20077;-45
2022/01/24 12:00:39;;;;;;;14.38;6.60;;;7.60;84.80;;;;;;21060153;28;20040;-45
2022/01/24 12:10:45;;;;;;;17.63;7.55;;;7.50;84.30;;;;;;20994599;28;20088;-45
2022/01/24 12:20:50;;;;;;;14.40;7.53;;;7.40;87.20;;;;;;20974111;28;20056;-46
2022/01/24 12:31:06;;;;;;;14.70;7.55;;;7.30;86.00;;;;;;20974776;28;20078;-44
2022/01/24 12:41:28;;;;;;;14.50;7.80;;;7.30;86.30;;;;;;21041906;28;20483;-45
2022/01/24 12:51:38;;;;;;;15.50;7.82;;;7.40;86.80;;;;;;21057344;28;20564;-44
2022/01/24 13:01:42;;;;;;;16.90;7.75;;;7.40;86.30;;;;;;21054292;28;20040;-45
2022/01/24 13:11:49;;;;;;;15.82;8.60;;;7.50;85.30;;;;;;21055051;28;20101;-47
2022/01/24 13:22:02;;;;;;;17.48;8.38;;;7.20;85.80;;;;;;21053525;28;20082;-46
2022/01/24 13:32:04;;;;;;;17.67;8.85;;;6.70;87.90;;;;;;21035719;28;20036;-45
2022/01/24 13:42:18;;;;;;;17.95;9.65;;;6.30;90.20;;;;;;21053431;28;20077;-45
2022/01/24 13:52:25;;;;;;;17.48;9.18;;;5.70;90.70;;;;;;21051991;28;20074;-46
2022/01/24 14:02:34;;;;;;;18.30;9.13;;;5.20;90.80;;;;;;21034813;28;20032;-46
2022/01/24 14:12:57;;;;;;;16.07;9.17;;;5.00;91.50;;;;;;21078842;28;20047;-45
2022/01/24 14:23:29;;;;;;;23.88;11.40;;;4.50;92.60;;;;;;21048743;28;20297;-45
2022/01/24 14:33:35;;;;;;;24.27;12.18;;;4.10;93.90;;;;;;21064443;28;20040;-45
2022/01/24 14:54:09;;;;;;;25.30;12.18;;;3.40;94.70;;;;;;21062828;28;20560;-45
2022/01/24 15:04:11;;;;;;;16.67;6.55;;;3.00;95.70;;;;;;21063519;28;20089;-45
2022/01/24 15:14:24;;;;;;;20.65;10.68;;;2.80;94.20;;;;;;21062061;28;20047;-45
2022/01/24 15:24:39;;;;;;;8.55;3.45;;;2.80;95.20;;;;;;21062536;28;20036;-45
2022/01/24 15:34:42;;;;;;;6.45;2.45;;;2.50;91.70;;;;;;21062929;28;20180;-45
2022/01/24 15:45:13;;;;;;;5.43;2.42;;;2.00;92.20;;;;;;21061808;28;20387;-45
2022/01/24 15:55:12;;;;;;;4.55;1.80;;;1.40;92.70;;;;;;21058766;28;20048;-45
2022/01/24 16:05:17;;;;;;;5.63;2.03;;;1.00;93.20;;;;;;21034761;28;20094;-46
2022/01/24 16:15:23;;;;;;;4.22;1.92;;;0.80;93.80;;;;;;20972165;28;20052;-46
2022/01/24 16:25:34;;;;;;;2.58;1.42;;;0.40;94.40;;;;;;20954758;28;20036;-45
2022/01/24 16:35:38;;;;;;;3.38;1.40;;;0.10;94.70;;;;;;20992118;28;20548;-50
2022/01/24 16:56:17;;;;;;;3.95;1.17;;;-0.60;95.70;;;;;;20730719;28;20092;-47
2022/01/24 17:06:19;;;;;;;3.33;1.20;;;-0.90;96.20;;;;;;20714094;28;20065;-45
2022/01/24 17:16:23;;;;;;;4.57;1.95;;;-1.10;96.70;;;;;;20685835;28;20089;-44
2022/01/24 17:26:26;;;;;;;8.18;2.40;;;-1.20;97.20;;;;;;20799680;28;20074;-45
2022/01/24 17:36:29;;;;;;;9.70;3.50;;;-1.40;97.80;;;;;;20968357;28;20037;-44
2022/01/24 17:46:36;;;;;;;8.05;3.70;;;-1.50;98.20;;;;;;20969368;28;20138;-46
2022/01/24 17:56:44;;;;;;;7.47;3.78;;;-1.60;98.50;;;;;;21030569;28;20028;-46
2022/01/24 18:06:49;;;;;;;10.88;4.35;;;-1.70;99.10;;;;;;21049703;28;20313;-47
2022/01/24 18:16:52;;;;;;;10.57;3.95;;;-1.90;99.70;;;;;;21051452;28;20051;-45
2022/01/24 18:26:56;;;;;;;10.23;3.47;;;-2.10;99.60;;;;;;21051040;28;20097;-44
2022/01/24 18:36:58;;;;;;;13.95;4.88;;;-2.20;99.90;;;;;;21050502;28;20499;-44
2022/01/24 18:47:01;;;;;;;8.77;4.03;;;-2.50;99.90;;;;;;21050056;28;20132;-45
2022/01/24 18:57:06;;;;;;;13.85;5.28;;;-2.70;99.90;;;;;;21055279;28;20036;-45
2022/01/24 19:07:08;;;;;;;12.82;5.30;;;-2.70;99.90;;;;;;21063372;28;20077;-46
2022/01/24 19:17:14;;;;;;;13.25;5.95;;;-2.80;99.90;;;;;;21045689;28;20051;-45
2022/01/24 19:27:17;;;;;;;15.27;5.97;;;-3.00;99.90;;;;;;21060293;28;20498;-44
2022/01/24 19:37:20;;;;;;;15.73;6.88;;;-3.00;99.90;;;;;;21059579;28;20480;-45
2022/01/24 19:47:24;;;;;;;14.20;6.30;;;-3.10;99.90;;;;;;21058675;28;20066;-46
2022/01/24 19:57:31;;;;;;;13.40;4.90;;;-3.10;99.90;;;;;;21059281;28;20036;-45
2022/01/24 20:07:35;;;;;;;14.10;5.35;;;-3.20;99.90;;;;;;21056406;28;20036;-46
2022/01/24 20:17:37;;;;;;;16.85;7.47;;;-3.30;99.90;;;;;;21056448;28;20557;-48
2022/01/24 20:27:41;;;;;;;17.73;7.50;;;-3.40;99.90;;;;;;21057420;28;20040;-45
2022/01/24 20:37:44;;;;;;;22.77;9.70;;;-3.70;99.90;;;;;;21054919;28;20093;-46
2022/01/24 20:47:48;;;;;;;25.00;9.80;;;-3.80;99.90;;;;;;21072044;28;20429;-45
2022/01/24 20:57:51;;;;;;;35.22;14.52;;;-3.90;99.90;;;;;;21053549;28;20157;-46
2022/01/24 21:07:54;;;;;;;24.50;10.65;;;-3.90;99.90;;;;;;21052148;28;20032;-45
2022/01/24 21:17:56;;;;;;;33.83;13.75;;;-3.70;99.90;;;;;;21051448;28;20102;-45
2022/01/24 21:27:59;;;;;;;33.55;14.55;;;-3.10;99.90;;;;;;21051179;28;20527;-47
2022/01/24 21:38:03;;;;;;;25.70;11.75;;;-2.60;99.90;;;;;;21050208;28;20093;-45
2022/01/24 21:48:09;;;;;;;33.50;14.95;;;-2.30;99.90;;;;;;21050144;28;20057;-45
2022/01/24 21:58:14;;;;;;;31.33;13.85;;;-2.20;99.90;;;;;;21049663;28;20086;-45
2022/01/24 22:18:20;;;;;;;29.10;13.15;;;-2.70;99.90;;;;;;21048780;28;20094;-46
2022/01/24 22:28:22;;;;;;;24.98;10.85;;;-2.60;99.90;;;;;;21050475;28;20048;-45
2022/01/24 22:38:25;;;;;;;20.30;8.93;;;-2.20;99.90;;;;;;21064924;28;20066;-47
2022/01/24 22:48:29;;;;;;;18.85;9.57;;;-1.90;99.90;;;;;;21064713;28;20044;-46
2022/01/24 22:58:34;;;;;;;18.98;8.80;;;-1.50;99.90;;;;;;21064543;28;20307;-46
2022/01/24 23:08:37;;;;;;;17.63;9.20;;;-1.30;99.90;;;;;;21062811;28;20086;-45
2022/01/24 23:28:49;;;;;;;15.40;8.55;;;-1.10;99.90;;;;;;21060886;28;20326;-45
2022/01/24 23:38:59;;;;;;;19.92;9.63;;;-1.10;99.90;;;;;;21060407;28;20557;-47
2022/01/24 23:49:05;;;;;;;23.33;10.77;;;-1.10;99.90;;;;;;21059074;28;20066;-45
